Station: CAPE JAFFA

  Atmospheric Gas Attenuation - ITU Rec 676-11   --------------- db/100km ---------------
Date Time Temp RH % AH g/m3 Dew Point Wind Direction Speed kph Gust kph Barometer mB Rainfall Since 9am 24GHz 47GHz 76GHz 122GHz 134GHz 241GHz
16 18:10 16.6 74 10.45 11.9 22 26 1013.1 0 23.4 28.1 45.8 120.5 119.2 411.7
16 18:00 16.4 77 10.75 12.4 24 30 1018.7 0 24.0 28.9 47.4 124.8 124.2 428.9
16 17:50 16.4 76 10.61 12.1 26 30 1013.1 0 23.7 28.4 46.6 122.6 121.7 420.4
16 17:40 16.8 75 10.72 12.3 28 32 1013.1 0 24.0 28.5 46.8 123.2 122.6 423.4
16 17:30 16.9 74 10.64 12.2 26 33 1018.8 0 23.8 28.5 46.7 122.8 121.9 421.0
16 17:20 17 73 10.56 12.1 26 30 1013.1 0 23.6 28.1 46.0 121.1 120.1 414.8
16 17:10 17.9 71 10.84 12.7 28 32 1013.1 0 24.2 28.3 46.7 122.8 122.5 423.2
16 17:00 18.4 71 11.17 13.1 26 37 1018.9 0 24.8 28.9 48.0 126.3 126.7 438.0
16 16:50 17.2 72 10.54 12.1 28 30 1013.1 0 23.6 28.0 45.8 120.6 119.5 412.8
16 16:40 17.1 72 10.48 12 28 32 1013.1 0 23.4 28.0 45.6 120.1 118.9 410.5
16 16:30 17.2 72 10.54 12.1 30 37 1019.1 0 23.5 28.3 46.1 121.3 120.1 414.7
16 16:20 18 70 10.75 12.4 26 28 1013.1 0 24.0 28.1 46.2 121.7 121.1 418.4
16 16:10 17.6 72 10.8 12.5 28 32 1013.1 0 24.1 28.3 46.7 122.8 122.4 422.9
16 16:00 17 70 10.13 11.5 28 35 1019.4 0 22.7 27.7 44.6 117.1 114.9 396.5
16 15:50 17.7 69 10.41 11.9 28 32 1013.1 0 23.2 27.7 45.0 118.4 117.0 404.1
16 15:40 17.2 69 10.1 11.6 28 33 1013.1 0 22.6 27.3 44.0 115.8 113.6 392.2
16 15:30 17.8 68 10.32 11.8 26 33 1019.5 0 23.0 27.7 44.9 118.0 116.2 401.4
16 15:20 17.5 69 10.29 11.9 26 30 1013.1 0 23.0 27.5 44.6 117.4 115.7 399.5
16 15:10 17.3 69 10.16 11.7 28 30 1013.1 0 22.7 27.4 44.2 116.3 114.3 394.5
16 15:00 17.3 71 10.46 12 26 33 1019.6 0 23.4 28.1 45.8 120.3 118.9 410.6
16 14:50 17.4 69 10.23 11.6 28 32 1013.1 0 22.9 27.5 44.5 116.9 115.0 397.2
16 14:40 17.6 69 10.35 11.8 30 35 1013.1 0 23.1 27.6 44.8 117.9 116.3 401.8
16 14:30 17 67 9.69 10.8 26 33 1019.9 0 21.7 27.0 42.8 112.4 109.1 376.2
16 14:20 17.8 64 9.71 10.9 26 32 1013.1 0 21.8 26.5 42.2 110.8 107.6 371.3
16 14:10 17.7 65 9.81 11.2 24 30 1013.1 0 22.0 26.7 42.6 112.0 109.1 376.4
16 14:00 17.1 68 9.9 11.2 28 35 1019.8 0 22.2 27.3 43.6 114.5 111.7 385.4
16 13:50 18.1 63 9.73 11.1 33 41 1013.1 0 21.8 26.4 42.1 110.6 107.5 370.8
16 13:40 18.1 63 9.73 11.1 26 33 1013.1 0 21.8 26.4 42.1 110.6 107.5 370.8
16 13:30 17.8 64 9.71 10.9 24 33 1020 0 21.7 26.8 42.5 111.5 108.2 373.4
16 13:20 17.3 64 9.43 10.4 22 28 1013.1 0 21.2 26.2 41.3 108.5 104.7 360.9
16 13:10 17 66 9.55 10.6 19 22 1013.1 0 21.5 26.5 41.9 110.2 106.6 367.8
16 13:00 17.1 63 9.17 10 26 33 1020.1 0 20.6 26.1 40.7 106.8 102.2 352.0
16 12:50 16.9 64 9.2 10 24 30 1013.1 0 20.7 25.9 40.6 106.7 102.2 352.3
16 12:40 17.1 64 9.32 10.2 22 28 1013.1 0 21.0 26.1 41.0 107.6 103.5 356.8
16 12:30 16.6 65 9.18 10 26 35 1020.3 0 20.7 26.3 41.0 107.6 103.0 354.8
16 12:20 16.2 66 9.1 9.8 26 30 1013.1 0 20.5 26.0 40.6 106.5 101.9 350.9
16 12:10 16.6 66 9.32 10.2 26 30 1013.1 0 21.0 26.2 41.2 108.3 104.2 359.1
16 12:00 16.4 66 9.21 10 20 28 1020.3 0 20.8 26.4 41.2 108.2 103.6 357.1
16 11:50 15.6 70 9.31 10.1 19 24 1013.1 0 21.0 26.5 41.7 109.6 105.4 363.2
16 11:40 15.4 68 8.93 9.5 20 24 1013.1 0 20.2 26.0 40.3 105.8 100.7 346.7
16 11:30 15.4 66 8.67 9.1 26 33 1020.2 0 19.7 25.8 39.6 103.8 97.9 336.8
16 11:20 15.6 62 8.25 8.3 22 28 1013.1 0 18.8 24.8 37.5 98.4 91.7 315.1
16 11:10 16.2 58 8 7.9 28 33 1013.1 0 18.2 24.3 36.3 95.2 87.8 301.8
16 11:00 16 58 7.9 7.7 28 35 1020.2 0 18.0 24.4 36.3 95.1 87.3 299.9
16 10:50 16.2 63 8.69 9.1 24 32 1013.1 0 19.7 25.3 39.0 102.2 96.6 332.4
16 10:40 15.8 65 8.75 9.2 24 28 1013.1 0 19.8 25.6 39.4 103.4 97.8 336.7
16 10:30 15.8 65 8.75 9.2 26 32 1020.1 0 19.8 25.8 39.7 104.1 98.4 338.7
16 10:20 15.7 64 8.56 8.9 22 28 1013.1 0 19.4 25.3 38.7 101.5 95.5 328.6
16 10:10 15.1 64 8.26 8.3 26 28 1013.1 0 18.8 25.0 37.8 99.2 92.4 317.6
16 10:00 15.3 59 7.7 7.3 24 35 1020.1 0 17.6 24.3 35.9 93.9 85.6 293.7
16 09:50 15.4 57 7.49 6.9 26 28 1013.1 0 17.2 23.7 34.7 90.9 82.3 282.4
16 09:40 15.4 55 7.23 6.4 24 26 1013.1 0 16.6 23.3 33.8 88.3 79.1 271.2
16 09:30 15.6 54 7.18 6.3 30 37 1020.1 0 16.5 23.4 33.8 88.3 78.8 269.9
16 09:20 15.4 57 7.49 7.1 30 39 1013.1 0 17.2 23.7 34.7 90.9 82.3 282.4
16 09:10 14.9 58 7.39 6.9 28 33 1013.1 0 17.0 23.7 34.6 90.5 81.6 279.8
16 09:00 15 59 7.57 7.1 28 35 1020 0 17.3 24.2 35.5 92.9 84.2 289.0
16 08:50 14.9 58 7.39 6.9 24 30 1013.1 0 17.0 23.7 34.6 90.5 81.6 279.8
16 08:40 14.9 60 7.65 7.2 33 39 1013.1 0 17.5 24.1 35.6 93.1 84.9 291.2
16 08:30 14.7 59 7.43 6.8 28 35 1019.8 0 17.1 24.0 35.1 91.8 82.8 283.9
16 08:20 14.9 58 7.39 6.7 30 35 1013.1 0 17.0 23.7 34.6 90.5 81.6 279.8
16 08:10 14.9 57 7.26 6.4 24 30 1013.1 0 16.7 23.5 34.1 89.2 80.0 274.2
16 08:00 14.7 58 7.3 6.5 24 32 1019.4 0 16.8 23.8 34.6 90.4 81.1 278.1
16 07:50 14.7 56 7.05 6.2 24 28 1013.1 0 16.2 23.2 33.4 87.3 77.6 265.8
16 07:40 14.7 56 7.05 6 19 22 1013.1 0 16.2 23.2 33.4 87.3 77.6 265.8
16 07:30 15 54 6.92 5.8 26 33 1019.2 0 16.0 23.2 33.0 86.3 76.1 260.5
16 07:20 14.4 56 6.92 5.7 26 32 1013.1 0 16.0 23.1 33.0 86.3 76.3 261.1
16 07:10 14.2 58 7.08 6 24 28 1013.1 0 16.3 23.4 33.7 88.2 78.5 268.7
16 07:00 13.8 63 7.51 6.9 22 28 1018.7 0 17.3 24.4 35.7 93.5 84.7 290.4
16 06:50 13.8 61 7.27 6.4 20 22 1013.1 0 16.8 23.8 34.6 90.5 81.2 278.4
16 06:40 13.7 59 6.99 6 20 22 1013.1 0 16.2 23.4 33.6 87.8 77.9 266.5
16 06:30 13.5 60 7.02 5.9 22 28 1018.4 0 16.2 23.7 34.0 88.8 78.8 269.7
16 06:20 13.2 61 7 5.8 22 28 1013.1 0 16.2 23.5 33.8 88.5 78.5 268.6
16 06:10 13.3 59 6.82 5.4 20 24 1013.1 0 15.8 23.2 33.1 86.5 76.1 260.4
16 06:00 13.6 58 6.83 5.5 28 33 1018 0 15.8 23.3 33.2 86.8 76.3 260.9
16 05:50 13.6 59 6.94 5.7 26 30 1013.1 0 16.1 23.3 33.4 87.4 77.3 264.6
16 05:40 13.7 59 6.99 5.8 28 32 1013.1 0 16.2 23.4 33.6 87.8 77.9 266.5
16 05:30 13.6 58 6.83 5.5 26 32 1017.8 0 15.8 23.3 33.2 86.7 76.3 260.9
16 05:20 13.6 58 6.83 5.5 20 24 1013.1 0 15.8 23.2 33.0 86.3 76.0 259.9
16 05:10 13.6 58 6.83 5.5 30 32 1013.1 0 15.8 23.2 33.0 86.3 76.0 259.9
16 04:50 13.7 61 7.22 6.3 24 26 1013.1 0 16.7 23.7 34.4 90.1 80.7 276.6
16 04:40 13.7 59 6.99 5.8 22 26 1013.1 0 16.2 23.4 33.6 87.8 77.9 266.5
16 04:30 13.7 58 6.87 5.6 28 37 1017.2 0 15.9 23.3 33.3 87.0 76.6 262.2
16 04:20 13.9 59 7.07 6 32 39 1013.1 0 16.3 23.5 33.8 88.4 78.6 269.3
16 04:10 13.9 57 6.83 5.7 33 39 1013.1 0 15.8 23.1 32.9 86.0 75.7 258.9
16 04:00 13.8 59 7.03 5.9 32 39 1017.2 0 16.2 23.6 33.8 88.5 78.5 268.8
16 03:50 14 61 7.36 6.6 32 39 1013.1 0 16.9 23.9 34.8 91.2 82.2 281.7
16 03:40 13.8 62 7.39 6.6 24 30 1013.1 0 17.0 24.0 35.0 91.8 82.8 283.7
16 03:30 13.9 61 7.31 6.5 28 37 1017.4 0 16.8 24.0 34.9 91.2 82.0 280.8
16 03:20 14.2 58 7.08 6 30 33 1013.1 0 16.3 23.4 33.7 88.2 78.5 268.7
16 03:10 14.2 56 6.84 5.5 28 32 1013.1 0 15.8 23.0 32.8 85.8 75.5 258.3
16 03:00 14.2 56 6.84 5.6 32 41 1017.7 0 15.8 23.2 33.0 86.2 75.8 259.4
16 02:50 14.2 58 7.08 6 28 33 1013.1 0 16.3 23.4 33.7 88.2 78.5 268.7
16 02:40 14.2 60 7.33 6.5 28 33 1013.1 0 16.9 23.8 34.6 90.7 81.6 279.7
16 02:30 14.2 61 7.45 6.8 32 39 1017.9 0 17.1 24.1 35.3 92.4 83.4 286.1
16 02:20 14.1 62 7.52 6.9 33 37 1013.1 0 17.3 24.1 35.4 92.7 84.1 288.4
16 02:10 14.1 62 7.52 6.9 35 41 1013.1 0 17.3 24.1 35.4 92.7 84.1 288.4
16 02:00 14.2 64 7.82 7.5 32 41 1018 0 17.9 24.7 36.7 96.2 88.1 302.6
16 01:50 14.1 66 8.01 7.8 28 37 1013.1 0 18.3 24.9 37.3 97.8 90.3 310.3
16 01:40 14.1 66 8.01 7.8 33 37 1013.1 0 18.3 24.9 37.3 97.8 90.3 310.3
16 01:20 13.3 69 7.97 7.7 30 33 1013.1 0 18.3 25.0 37.5 98.4 90.7 311.6

Last Refresh: 16-Jan-2021 18:15:35

Most of the information presented on this site is sourced from the Bureau of Meteorology.  Copyright in all material sourced from the Bureau of Meteorology resides with the Commonwealth of Australia.